METAR v bližini

 

LIPQ - Ronchi Legionari, Italy
Oddaljenost od postaje: JZ 35km
Podatki zajeti: 18/10/2018 03:20
Pretežno oblačno
Pretežno oblačno
 Veter iz smeri S
Veter: S 4 km/h
Temperatura: 17°C
Temp. rosišča: 14°C
Vlažnost: 83%
Tlak: 1016 hPa
Oblačnost: Pretežno oblačno
Vidljivost: 10 km
Podrobnosti o oblakih: Pretežno oblačno 3658 m
2018/10/18 01:20 LIPQ 180120Z AUTO 36002KT 9999 BKN120/// 17/14 Q1016
LIVT - Trieste, Italy
Oddaljenost od postaje: J 49km
Podatki zajeti: 18/10/2018 02:55
Jasno
Jasno
 Veter iz smeri SV
Veter: SV 17 km/h
Temperatura: 20°C
Temp. rosišča: 13°C
Vlažnost: 64%
Tlak: 1015 hPa
Stanje: Jasno
Vidljivost: večja od 10 km
2018/10/18 00:55 LIVT 180055Z 05009KT CAVOK 20/13 Q1015 RMK SCT SCT070 QUK / QUL / VIS MAR 20 KM VIS MIN 9999
 
LIVO - Tarvisio, Italy
Oddaljenost od postaje: SSZ 49km
Podatki zajeti: 17/10/2018 19:55
Ni posodobljen
Oblačno
Oblačno
 Veter iz smeri calm
Veter: Tišina
Temperatura: 10°C
Temp. rosišča: 9°C
Vlažnost: 94%
Tlak: 1020 hPa
Oblačnost: Oblačno
Vidljivost: 10 km
Podrobnosti o oblakih: Oblačno 914 m
2018/10/17 17:55 LIVO 171755Z 00000KT 9999 OVC030 10/09 Q1020 RMK OVC VIS MIN 9999
LIPI - Rivolto (it-Afb), Italy
Oddaljenost od postaje: ZJZ 57km
Podatki zajeti: 17/10/2018 16:55
Ni posodobljen
Delno oblačno
Delno oblačno
 Veter iz smeri spremenljiv
Veter: spremenljiv 0 km/h
Temperatura: 20°C
Temp. rosišča: 15°C
Vlažnost: 73%
Tlak: 1018 hPa
Oblačnost: Delno oblačno
Vidljivost: 9 km
Podrobnosti o oblakih: Delno oblačno 1219 m
Delno oblačno 2438 m
2018/10/17 14:55 LIPI 171455Z /////KT 9000 SCT040 SCT080 20/15 Q1018 RMK BKN VIS MIN 9000 WIND THR06 36003KT WIND THR24 36004KT BLU
 
LJLJ - Ljubljana/Brnik, Slovenia
Oddaljenost od postaje: VSV 59km
Podatki zajeti: 18/10/2018 03:00
Pretežno oblačno
Pretežno oblačno
 Veter iz smeri Z
Veter: Z 6 km/h
Temperatura: 13°C
Temp. rosišča: 12°C
Vlažnost: 94%
Tlak: 1019 hPa
Oblačnost: Pretežno oblačno
Vidljivost: 10 km
Podrobnosti o oblakih: Rahlo oblačno 1067 m
Pretežno oblačno 3048 m
2018/10/18 01:00 LJLJ 180100Z 27003KT 9999 FEW035 BKN100 13/12 Q1019 NOSIG
LJPZ - Portoroz, Slovenia
Oddaljenost od postaje: J 68km
Podatki zajeti: 18/10/2018 03:00
Delno oblačno
Delno oblačno
 Veter iz smeri VJV
Veter: VJV 15 km/h
Temperatura: 16°C
Temp. rosišča: 14°C
Vlažnost: 88%
Tlak: 1016 hPa
Oblačnost: Delno oblačno
Vidljivost: 10 km
2018/10/18 01:00 LJPZ 180100Z AUTO 12008KT 9999 NSC 16/14 Q1016
 
LOWK - Klagenfurt(Civ/M, Austria
Oddaljenost od postaje: SV 78km
Podatki zajeti: 18/10/2018 03:20
Megla v pasovih, Pretežno oblačno
Megla v pasovih, Pretežno oblačno
 Veter iz smeri SZ
Veter: SZ 4 km/h
Temperatura: 10°C
Temp. rosišča: 10°C
Vlažnost: 100%
Tlak: 1020 hPa
Stanje: Patches of Fog
Oblačnost: Pretežno oblačno
Vidljivost: 3 km
Podrobnosti o oblakih: Delno oblačno 61 m
Pretežno oblačno 244 m
2018/10/18 01:20 LOWK 180120Z AUTO 31002KT 3200 0800S R10/P1500U R28/P1500D BCFG SCT002 BKN008 10/10 Q1020
LIYW - Aviano (usaf), Italy
Oddaljenost od postaje: Z 86km
Podatki zajeti: 20/10/2015 15:58
Ni posodobljen
Jasno
Jasno
 Veter iz smeri JJZ
Veter: JJZ 6 km/h
Temperatura: 17°C
Temp. rosišča: 3°C
Vlažnost: 39%
Tlak: 1016.3 hPa
Oblačnost: Jasno
Vidljivost: 10 km
2015/10/20 13:58 LIYW 201358Z AUTO 21003KT 9999 CLR 17/03 A3001 RMK AO2 SLP167 T01660029
 
LIPA - Aviano (it/Us-Af, Italy
Oddaljenost od postaje: Z 89km
Podatki zajeti: 17/10/2018 21:55
Ni posodobljen
Pretežno oblačno
Pretežno oblačno
 Veter iz smeri SV
Veter: SV 9 km/h
Temperatura: 16°C
Temp. rosišča: 15°C
Vlažnost: 94%
Tlak: 1018 hPa
Oblačnost: Pretežno oblačno
Vidljivost: 10 km
Podrobnosti o oblakih: Pretežno oblačno 2438 m
2018/10/17 19:55 LIPA 171955Z 04005KT 9999 BKN080 16/15 Q1018 RMK BKN VIS MIN 9999 WIND THR05 /////KT WIND THR23 /////KT A3008 BLU
LDRI - Rijeka/Omisalj, Croatia
Oddaljenost od postaje: JV 115km
Podatki zajeti: 18/10/2018 03:00
Delno oblačno
Delno oblačno
 Veter iz smeri VSV
Veter: VSV 9 km/h
Temperatura: 20°C
Temp. rosišča: 11°C
Vlažnost: 56%
Tlak: 1016 hPa
Oblačnost: Delno oblačno
Vidljivost: 10 km
Podrobnosti o oblakih: Rahlo oblačno 1128 m
Delno oblačno 1433 m
2018/10/18 01:00 LDRI 180100Z 06005KT 9999 FEW037 SCT047 20/11 Q1016
 
LIPZ - Venezia/Tessera, Italy
Oddaljenost od postaje: ZJZ 127km
Podatki zajeti: 18/10/2018 03:20
Jasno
Jasno
 Veter iz smeri SZ
Veter: SZ 6 km/h
Temperatura: 15°C
Temp. rosišča: 14°C
Vlažnost: 94%
Tlak: 1017 hPa
Stanje: Jasno
Vidljivost: večja od 10 km
2018/10/18 01:20 LIPZ 180120Z 31003KT CAVOK 15/14 Q1017 NOSIG
LDPL - Pula, Croatia
Oddaljenost od postaje: J 133km
Podatki zajeti: 18/10/2018 03:00
Jasno
Jasno
 Veter iz smeri spremenljiv
Veter: spremenljiv 4 km/h
Temperatura: 14°C
Temp. rosišča: 12°C
Vlažnost: 88%
Tlak: 1016 hPa
Stanje: Jasno
Vidljivost: večja od 10 km
2018/10/18 01:00 LDPL 180100Z VRB02KT CAVOK 14/12 Q1016
 
LIPS - Istrana (it-Afb), Italy
Oddaljenost od postaje: ZJZ 136km
Podatki zajeti: 18/10/2018 02:55
Delno oblačno
Delno oblačno
 Veter iz smeri S
Veter: S 7 km/h
Temperatura: 16°C
Temp. rosišča: 13°C
Vlažnost: 83%
Tlak: 1017 hPa
Oblačnost: Delno oblačno
Vidljivost: 8 km
Podrobnosti o oblakih: Delno oblačno 3048 m
2018/10/18 00:55 LIPS 180055Z 35004KT 8000 SCT100 16/13 Q1017 RMK SCT VIS MIN 8000 WIND THR26 28002KT WIND THR08 32002KT BLU
LIVD - Dobbiaco, Italy
Oddaljenost od postaje: ZSZ 137km
Podatki zajeti: 17/10/2018 19:55
Ni posodobljen

 
2018/10/17 17:55 LIVD 171755Z ///04KT CAVOK 11/07 Q1022 RMK BKN BKN080 VIS MIN 9999
 
LJCE - Cerklje, Slovenia
Oddaljenost od postaje: V 139km
Podatki zajeti: 18/10/2018 03:00
Pretežno oblačno
Pretežno oblačno
 Veter iz smeri calm
Veter: Tišina
Temperatura: 12°C
Temp. rosišča: 11°C
Vlažnost: 94%
Tlak: 1019 hPa
Oblačnost: Pretežno oblačno
Vidljivost: 3 km
Podrobnosti o oblakih: Rahlo oblačno 518 m
Delno oblačno 3048 m
Pretežno oblačno 3658 m
2018/10/18 01:00 LJCE 180100Z AUTO 00000KT 2900 // FEW017/// SCT100/// BKN120/// 12/11 Q1019
LOXZ - Zeltweg (mil), Austria
Oddaljenost od postaje: SSV 147km
Podatki zajeti: 18/10/2018 01:50
Ni posodobljen
Megla, Rahlo dežuje, Pretežno oblačno
Megla, Rahlo dežuje, Pretežno oblačno
 Veter iz smeri spremenljiv
Veter: spremenljiv 2 km/h
Temperatura: 10°C
Temp. rosišča: 9°C
Vlažnost: 94%
Tlak: 1021 hPa
Stanje: Megla, Rahlo dežuje
Oblačnost: Pretežno oblačno
Vidljivost: 0 km
Podrobnosti o oblakih: Delno oblačno 30 m
Pretežno oblačno 1829 m
2018/10/17 23:50 LOXZ 172350Z VRB01KT 0400 FG -RA SCT001ST BKN060SC 10/09 Q1021